createdAt,value
2023-04-17T00:01:40.629Z,6.90
2023-04-17T00:04:07.793Z,6.80
2023-04-17T00:06:34.797Z,6.80
2023-04-17T00:09:01.632Z,6.80
2023-04-17T00:11:28.568Z,6.70
2023-04-17T00:13:55.456Z,6.70
2023-04-17T00:16:22.450Z,6.70
2023-04-17T00:18:49.386Z,6.70
2023-04-17T00:21:16.351Z,6.70
2023-04-17T00:23:43.188Z,6.70
2023-04-17T00:26:10.059Z,6.60
2023-04-17T00:28:37.087Z,6.60
2023-04-17T00:31:04.152Z,6.60
2023-04-17T00:33:32.410Z,6.60
2023-04-17T00:35:59.267Z,6.60
2023-04-17T00:38:26.244Z,6.60
2023-04-17T00:40:53.091Z,6.60
2023-04-17T00:43:20.021Z,6.50
2023-04-17T00:45:47.273Z,6.50
2023-04-17T00:48:16.308Z,6.50
2023-04-17T00:50:44.445Z,6.50
2023-04-17T00:53:12.408Z,6.50
2023-04-17T00:55:41.157Z,6.40
2023-04-17T00:58:08.604Z,6.50
2023-04-17T01:00:35.891Z,6.40
2023-04-17T01:03:03.177Z,6.40
2023-04-17T01:05:30.167Z,6.40
2023-04-17T01:08:00.155Z,6.50
2023-04-17T01:10:27.064Z,6.50
2023-04-17T01:13:03.197Z,6.50
2023-04-17T01:15:30.139Z,6.50
2023-04-17T01:17:57.159Z,6.40
2023-04-17T01:20:24.161Z,6.50
2023-04-17T01:22:52.036Z,6.50
2023-04-17T01:25:19.604Z,6.50
2023-04-17T01:27:46.592Z,6.50
2023-04-17T01:30:14.045Z,6.40
2023-04-17T01:32:41.024Z,6.40
2023-04-17T01:35:08.473Z,6.40
2023-04-17T01:37:35.321Z,6.40
2023-04-17T01:40:02.375Z,6.40
2023-04-17T01:42:29.252Z,6.40
2023-04-17T01:44:56.071Z,6.40
2023-04-17T01:47:22.945Z,6.30
2023-04-17T01:49:49.868Z,6.40
2023-04-17T01:52:16.765Z,6.40
2023-04-17T01:54:43.623Z,6.30
2023-04-17T01:57:10.541Z,6.40
2023-04-17T01:59:37.397Z,6.40
2023-04-17T02:02:04.422Z,6.40
2023-04-17T02:04:31.415Z,6.30
2023-04-17T02:06:58.420Z,6.40
2023-04-17T02:09:25.371Z,6.40
2023-04-17T02:11:52.213Z,6.40
2023-04-17T02:14:19.161Z,6.40
2023-04-17T02:16:46.037Z,6.40
2023-04-17T02:19:13.775Z,6.40
2023-04-17T02:21:40.809Z,6.40
2023-04-17T02:24:07.793Z,6.40
2023-04-17T02:26:34.672Z,6.40
2023-04-17T02:29:01.652Z,6.40
2023-04-17T02:31:28.583Z,6.50
2023-04-17T02:33:55.486Z,6.50
2023-04-17T02:36:22.357Z,6.50
2023-04-17T02:38:49.370Z,6.50
2023-04-17T02:41:16.282Z,6.50
2023-04-17T02:43:43.151Z,6.50
2023-04-17T02:46:10.043Z,6.50
2023-04-17T02:48:36.957Z,6.50
2023-04-17T02:51:03.971Z,6.50
2023-04-17T02:53:30.822Z,6.50
2023-04-17T02:55:58.405Z,6.40
2023-04-17T02:58:25.287Z,6.40
2023-04-17T03:00:52.214Z,6.40
2023-04-17T03:03:19.391Z,6.40
2023-04-17T03:05:46.435Z,6.40
2023-04-17T03:08:13.308Z,6.40
2023-04-17T03:10:40.141Z,6.40
2023-04-17T03:13:06.965Z,6.40
2023-04-17T03:15:33.875Z,6.40
2023-04-17T03:18:00.791Z,6.40
2023-04-17T03:20:27.715Z,6.40
2023-04-17T03:22:54.613Z,6.40
2023-04-17T03:25:21.559Z,6.40
2023-04-17T03:27:48.454Z,6.40
2023-04-17T03:30:15.401Z,6.40
2023-04-17T03:32:42.321Z,6.40
2023-04-17T03:35:09.383Z,6.40
2023-04-17T03:37:36.245Z,6.40
2023-04-17T03:40:03.247Z,6.40
2023-04-17T03:42:30.110Z,6.40
2023-04-17T03:44:56.961Z,6.40
2023-04-17T03:47:23.917Z,6.40
2023-04-17T03:49:50.805Z,6.40
2023-04-17T03:52:17.705Z,6.40
2023-04-17T03:54:44.577Z,6.40
2023-04-17T03:57:11.438Z,6.40
2023-04-17T03:59:38.284Z,6.40
2023-04-17T04:02:05.373Z,6.40
2023-04-17T04:04:32.530Z,6.30
2023-04-17T04:06:59.516Z,6.40
2023-04-17T04:09:26.370Z,6.40
2023-04-17T04:11:53.221Z,6.40
2023-04-17T04:14:20.170Z,6.40
2023-04-17T04:16:47.128Z,6.40
2023-04-17T04:19:14.334Z,6.40
2023-04-17T04:21:41.454Z,6.40
2023-04-17T04:24:08.427Z,6.40
2023-04-17T04:26:35.281Z,6.40
2023-04-17T04:29:02.196Z,6.50
2023-04-17T04:31:29.324Z,6.40
2023-04-17T04:33:58.120Z,6.40
2023-04-17T04:36:25.293Z,6.50
2023-04-17T04:38:52.140Z,6.50
2023-04-17T04:41:19.021Z,6.50
2023-04-17T04:43:45.868Z,6.50
2023-04-17T04:46:12.768Z,6.60
2023-04-17T04:48:42.147Z,6.60
2023-04-17T04:51:19.605Z,6.60
2023-04-17T04:53:46.584Z,6.60
2023-04-17T04:56:13.467Z,6.60
2023-04-17T04:58:40.307Z,6.70
2023-04-17T05:01:07.388Z,6.70
2023-04-17T05:03:34.501Z,6.70
2023-04-17T05:06:01.577Z,6.70
2023-04-17T05:08:28.465Z,6.70
2023-04-17T05:10:55.402Z,6.70
2023-04-17T05:13:22.264Z,6.70
2023-04-17T05:15:49.179Z,6.80
2023-04-17T05:18:16.137Z,6.80
2023-04-17T05:20:43.037Z,6.80
2023-04-17T05:23:09.906Z,6.80
2023-04-17T05:25:36.786Z,6.80
2023-04-17T05:28:03.648Z,6.90
2023-04-17T05:30:30.512Z,6.90
2023-04-17T05:32:57.438Z,6.90
2023-04-17T05:35:24.697Z,7.00
2023-04-17T05:37:51.719Z,7.00
2023-04-17T05:40:18.777Z,7.10
2023-04-17T05:42:45.760Z,7.10
2023-04-17T05:45:14.109Z,7.20
2023-04-17T05:47:41.487Z,7.30
2023-04-17T05:50:08.942Z,7.30
2023-04-17T05:52:38.042Z,7.30
2023-04-17T05:55:06.677Z,7.50
2023-04-17T05:57:33.516Z,7.50
2023-04-17T06:00:00.444Z,7.60
2023-04-17T06:02:27.706Z,7.70
2023-04-17T06:04:54.893Z,7.80
2023-04-17T06:07:21.837Z,7.90
2023-04-17T06:09:48.737Z,7.90
2023-04-17T06:12:15.577Z,8.00
2023-04-17T06:14:42.813Z,8.00
2023-04-17T06:17:09.919Z,8.10
2023-04-17T06:19:36.876Z,8.20
2023-04-17T06:22:03.715Z,8.20
2023-04-17T06:24:30.547Z,8.30
2023-04-17T06:26:57.407Z,8.40
2023-04-17T06:29:24.511Z,8.40
2023-04-17T06:31:51.423Z,8.50
2023-04-17T06:34:18.291Z,8.50
2023-04-17T06:36:45.157Z,8.70
2023-04-17T06:39:12.325Z,8.70
2023-04-17T06:41:39.419Z,8.70
2023-04-17T06:44:06.497Z,8.60
2023-04-17T06:46:33.456Z,8.80
2023-04-17T06:49:00.356Z,8.80
2023-04-17T06:51:27.225Z,8.90
2023-04-17T06:53:54.371Z,9.00
2023-04-17T06:56:21.243Z,9.10
2023-04-17T06:58:48.156Z,9.30
2023-04-17T07:01:15.272Z,9.30
2023-04-17T07:03:42.694Z,9.40
2023-04-17T07:06:10.031Z,9.50
2023-04-17T07:08:36.914Z,9.40
2023-04-17T07:11:03.782Z,9.60
2023-04-17T07:13:32.262Z,9.80
2023-04-17T07:15:59.602Z,9.80
2023-04-17T07:18:26.763Z,9.90
2023-04-17T07:20:53.687Z,10.00
2023-04-17T07:23:20.526Z,10.00
2023-04-17T07:25:47.389Z,10.20
2023-04-17T07:28:14.560Z,10.30
2023-04-17T07:30:41.782Z,10.40
2023-04-17T07:33:09.049Z,10.50
2023-04-17T07:35:36.313Z,10.60
2023-04-17T07:38:03.202Z,10.60
2023-04-17T07:40:31.406Z,10.70
2023-04-17T07:42:58.266Z,10.80
2023-04-17T07:45:25.291Z,10.80
2023-04-17T07:47:52.349Z,10.90
2023-04-17T07:50:19.384Z,11.00
2023-04-17T07:52:46.280Z,11.10
2023-04-17T07:55:13.517Z,11.20
2023-04-17T07:57:40.378Z,11.30
2023-04-17T08:00:08.151Z,11.40
2023-04-17T08:02:35.171Z,11.50
2023-04-17T08:05:03.098Z,11.50
2023-04-17T08:07:30.012Z,11.70
2023-04-17T08:09:56.887Z,11.80
2023-04-17T08:12:23.815Z,11.80
2023-04-17T08:14:50.708Z,11.90
2023-04-17T08:17:17.661Z,12.00
2023-04-17T08:19:44.552Z,12.10
2023-04-17T08:22:11.436Z,12.40
2023-04-17T08:24:38.253Z,12.60
2023-04-17T08:27:05.137Z,12.80
2023-04-17T08:29:31.964Z,13.20
2023-04-17T08:32:13.112Z,14.50
2023-04-17T08:34:41.606Z,16.30
2023-04-17T08:37:08.475Z,17.40
2023-04-17T08:39:35.415Z,18.10
2023-04-17T08:42:07.581Z,18.80
2023-04-17T08:44:34.636Z,18.90
2023-04-17T08:47:01.625Z,19.20
2023-04-17T08:49:29.040Z,19.50
2023-04-17T08:51:56.105Z,20.00
2023-04-17T08:54:23.009Z,20.10
2023-04-17T08:56:49.962Z,20.30
2023-04-17T08:59:16.831Z,20.60
2023-04-17T09:02:05.645Z,20.60
2023-04-17T09:04:40.403Z,20.90
2023-04-17T09:07:09.671Z,20.90
2023-04-17T09:09:54.174Z,20.90
2023-04-17T09:12:22.730Z,20.70
2023-04-17T09:14:49.808Z,20.80
2023-04-17T09:17:18.408Z,20.50
2023-04-17T09:20:08.281Z,20.40
2023-04-17T09:22:36.986Z,20.10
2023-04-17T09:25:04.556Z,19.90
2023-04-17T09:27:31.454Z,19.50
2023-04-17T09:30:04.764Z,19.40
2023-04-17T09:32:33.384Z,19.20
2023-04-17T09:35:02.511Z,19.50
2023-04-17T09:37:48.018Z,19.50
2023-04-17T09:40:15.317Z,19.30
2023-04-17T09:43:00.194Z,19.30
2023-04-17T09:45:29.036Z,19.40
2023-04-17T09:47:56.110Z,19.30
2023-04-17T09:50:23.480Z,19.30
2023-04-17T09:52:55.007Z,18.90
2023-04-17T09:55:24.054Z,19.20
2023-04-17T09:57:53.290Z,19.20
2023-04-17T10:00:21.824Z,19.50
2023-04-17T10:02:50.323Z,19.50
2023-04-17T10:05:18.357Z,19.30
2023-04-17T10:07:45.585Z,19.60
2023-04-17T10:10:21.545Z,19.80
2023-04-17T10:12:50.332Z,19.70
2023-04-17T10:15:18.266Z,19.90
2023-04-17T10:17:45.299Z,19.90
2023-04-17T10:20:18.105Z,20.10
2023-04-17T10:22:48.749Z,20.10
2023-04-17T10:25:15.590Z,19.90
2023-04-17T10:27:42.962Z,20.40
2023-04-17T10:30:14.090Z,20.30
2023-04-17T10:32:44.735Z,20.00
2023-04-17T10:35:17.751Z,20.60
2023-04-17T10:38:06.211Z,20.50
2023-04-17T10:40:35.546Z,20.80
2023-04-17T10:43:02.386Z,21.20
2023-04-17T10:45:52.183Z,21.30
2023-04-17T10:48:38.942Z,21.20
2023-04-17T10:51:24.346Z,21.30
2023-04-17T10:54:02.028Z,21.20
2023-04-17T10:56:40.563Z,21.10
2023-04-17T10:59:18.129Z,21.50
2023-04-17T11:01:47.809Z,21.40
2023-04-17T11:04:29.104Z,21.60
2023-04-17T11:06:56.161Z,21.60
2023-04-17T11:09:25.393Z,21.60
2023-04-17T11:11:52.383Z,21.90
2023-04-17T11:14:21.838Z,21.70
2023-04-17T11:16:51.600Z,22.10
2023-04-17T11:19:20.504Z,22.20
2023-04-17T11:21:54.992Z,22.60
2023-04-17T11:24:29.556Z,22.50
2023-04-17T11:26:58.219Z,22.60
2023-04-17T11:29:25.180Z,22.40
2023-04-17T11:31:54.412Z,22.80
2023-04-17T11:34:21.498Z,22.30
2023-04-17T11:36:59.688Z,21.90
2023-04-17T11:39:29.518Z,22.90
2023-04-17T11:41:56.388Z,22.40
2023-04-17T11:44:23.458Z,22.40
2023-04-17T11:46:51.134Z,21.90
2023-04-17T11:49:27.891Z,21.40
2023-04-17T11:51:56.634Z,20.90
2023-04-17T11:54:31.606Z,20.70
2023-04-17T11:57:02.721Z,20.50
2023-04-17T11:59:34.176Z,20.20
2023-04-17T12:02:01.816Z,20.00
2023-04-17T12:04:29.390Z,19.70
2023-04-17T12:06:59.195Z,19.40
2023-04-17T12:09:26.755Z,19.20
2023-04-17T12:11:53.646Z,18.90
2023-04-17T12:14:20.520Z,18.20
2023-04-17T12:16:47.571Z,18.00
2023-04-17T12:19:14.526Z,17.80
2023-04-17T12:21:41.373Z,17.50
2023-04-17T12:24:08.348Z,17.50
2023-04-17T12:26:35.250Z,17.40
2023-04-17T12:29:02.236Z,17.30
2023-04-17T12:31:29.242Z,17.20
2023-04-17T12:33:56.293Z,17.00
2023-04-17T12:36:23.309Z,17.20
2023-04-17T12:38:50.233Z,17.80
2023-04-17T12:41:17.129Z,17.50
2023-04-17T12:43:44.011Z,17.60
2023-04-17T12:46:10.983Z,17.60
2023-04-17T12:48:37.870Z,17.20
2023-04-17T12:51:04.786Z,17.00
2023-04-17T12:53:31.658Z,16.30
2023-04-17T12:55:58.567Z,16.50
2023-04-17T12:58:25.458Z,16.60
2023-04-17T13:00:52.756Z,16.50
2023-04-17T13:03:19.861Z,15.70
2023-04-17T13:05:48.308Z,15.40
2023-04-17T13:08:15.345Z,15.50
2023-04-17T13:10:42.566Z,15.50
2023-04-17T13:13:09.734Z,15.10
2023-04-17T13:15:36.997Z,15.30
2023-04-17T13:18:04.051Z,15.20
2023-04-17T13:20:31.147Z,15.00
2023-04-17T13:22:59.074Z,14.80
2023-04-17T13:25:26.116Z,14.80
2023-04-17T13:27:53.055Z,15.20
2023-04-17T13:30:19.890Z,15.20
2023-04-17T13:32:46.792Z,15.00
2023-04-17T13:35:13.685Z,14.50
2023-04-17T13:37:44.148Z,14.00
2023-04-17T13:40:11.198Z,14.10
2023-04-17T13:42:38.342Z,14.00
2023-04-17T13:45:05.826Z,13.60
2023-04-17T13:47:32.767Z,13.60
2023-04-17T13:49:59.681Z,13.70
2023-04-17T13:52:26.561Z,13.60
2023-04-17T13:54:53.399Z,13.10
2023-04-17T13:57:20.252Z,13.10
2023-04-17T13:59:47.128Z,13.20
2023-04-17T14:02:14.194Z,13.00
2023-04-17T14:04:41.429Z,12.90
2023-04-17T14:07:08.317Z,12.70
2023-04-17T14:09:35.184Z,12.70
2023-04-17T14:12:02.091Z,12.60
2023-04-17T14:14:29.043Z,12.50
2023-04-17T14:16:56.517Z,12.50
2023-04-17T14:19:24.026Z,12.40
2023-04-17T14:21:50.921Z,12.30
2023-04-17T14:24:17.947Z,12.10
2023-04-17T14:26:44.910Z,12.00
2023-04-17T14:29:11.950Z,12.10
2023-04-17T14:31:38.977Z,12.10
2023-04-17T14:34:05.892Z,12.20
2023-04-17T14:36:34.814Z,12.00
2023-04-17T14:39:01.815Z,11.90
2023-04-17T14:41:28.748Z,11.70
2023-04-17T14:43:56.436Z,11.70
2023-04-17T14:46:23.486Z,11.40
2023-04-17T14:48:55.419Z,11.50
2023-04-17T14:51:26.113Z,11.40
2023-04-17T14:53:53.427Z,11.50
2023-04-17T14:56:20.932Z,11.60
2023-04-17T14:58:47.834Z,11.60
2023-04-17T15:01:14.771Z,11.70
2023-04-17T15:03:43.762Z,11.80
2023-04-17T15:06:12.613Z,11.80
2023-04-17T15:08:39.555Z,11.80
2023-04-17T15:11:06.810Z,11.60
2023-04-17T15:13:33.684Z,11.60
2023-04-17T15:16:00.594Z,11.70
2023-04-17T15:18:27.454Z,11.40
2023-04-17T15:20:54.293Z,11.50
2023-04-17T15:23:21.209Z,11.30
2023-04-17T15:25:48.129Z,11.30
2023-04-17T15:28:15.037Z,11.20
2023-04-17T15:30:41.888Z,11.10
2023-04-17T15:33:10.229Z,11.10
2023-04-17T15:35:37.677Z,11.20
2023-04-17T15:38:08.120Z,11.10
2023-04-17T15:40:35.012Z,11.10
2023-04-17T15:43:02.117Z,11.10
2023-04-17T15:45:29.036Z,11.00
2023-04-17T15:47:55.919Z,11.00
2023-04-17T15:50:22.932Z,10.80
2023-04-17T15:52:49.819Z,10.80
2023-04-17T15:55:16.789Z,10.70
2023-04-17T15:57:43.675Z,10.70
2023-04-17T16:00:11.133Z,10.60
2023-04-17T16:02:38.108Z,10.60
2023-04-17T16:05:05.469Z,10.70
2023-04-17T16:07:32.957Z,10.60
2023-04-17T16:09:59.835Z,10.60
2023-04-17T16:12:26.687Z,10.40
2023-04-17T16:14:53.625Z,10.30
2023-04-17T16:17:20.504Z,10.30
2023-04-17T16:19:50.158Z,10.30
2023-04-17T16:22:18.737Z,10.30
2023-04-17T16:24:45.642Z,10.20
2023-04-17T16:27:12.546Z,10.10
2023-04-17T16:29:39.452Z,10.10
2023-04-17T16:32:06.365Z,10.00
2023-04-17T16:34:33.217Z,9.90
2023-04-17T16:37:00.060Z,9.90
2023-04-17T16:39:26.974Z,9.80
2023-04-17T16:41:53.837Z,9.80
2023-04-17T16:44:20.752Z,9.80
2023-04-17T16:47:05.591Z,9.70
2023-04-17T16:49:34.459Z,9.70
2023-04-17T16:52:01.336Z,9.70
2023-04-17T16:54:28.216Z,9.70
2023-04-17T16:56:55.080Z,9.70
2023-04-17T16:59:22.884Z,9.60
2023-04-17T17:01:49.777Z,9.50
2023-04-17T17:04:16.900Z,9.50
2023-04-17T17:06:43.773Z,9.50
2023-04-17T17:09:10.750Z,9.50
2023-04-17T17:11:37.739Z,9.50
2023-04-17T17:14:04.624Z,9.50
2023-04-17T17:16:31.554Z,9.40
2023-04-17T17:18:58.483Z,9.30
2023-04-17T17:21:25.336Z,9.30
2023-04-17T17:23:52.271Z,9.30
2023-04-17T17:26:19.199Z,9.30
2023-04-17T17:28:46.075Z,9.30
2023-04-17T17:31:12.938Z,9.20
2023-04-17T17:33:39.785Z,9.20
2023-04-17T17:36:06.746Z,9.10
2023-04-17T17:38:33.660Z,9.00
2023-04-17T17:41:00.635Z,9.00
2023-04-17T17:43:27.592Z,9.00
2023-04-17T17:45:54.568Z,8.90
2023-04-17T17:48:21.641Z,8.90
2023-04-17T17:50:48.520Z,8.80
2023-04-17T17:53:15.456Z,8.80
2023-04-17T17:55:42.295Z,8.80
2023-04-17T17:58:09.447Z,8.80
2023-04-17T18:00:36.312Z,8.70
2023-04-17T18:03:03.280Z,8.70
2023-04-17T18:05:30.242Z,8.70
2023-04-17T18:07:57.086Z,8.70
2023-04-17T18:10:23.950Z,8.60
2023-04-17T18:12:50.831Z,8.60
2023-04-17T18:15:17.876Z,8.60
2023-04-17T18:17:44.943Z,8.50
2023-04-17T18:20:12.010Z,8.40
2023-04-17T18:22:38.938Z,8.40
2023-04-17T18:25:09.299Z,8.50
2023-04-17T18:27:36.843Z,8.40
2023-04-17T18:30:08.079Z,8.40
2023-04-17T18:32:35.976Z,8.40
2023-04-17T18:35:02.893Z,8.40
2023-04-17T18:37:29.953Z,8.40
2023-04-17T18:39:56.804Z,8.30
2023-04-17T18:42:23.745Z,8.30
2023-04-17T18:44:50.577Z,8.30
2023-04-17T18:47:17.471Z,8.30
2023-04-17T18:49:44.386Z,8.30
2023-04-17T18:52:11.287Z,8.20
2023-04-17T18:54:38.112Z,8.20
2023-04-17T18:57:04.938Z,8.20
2023-04-17T18:59:31.860Z,8.20
2023-04-17T19:01:58.728Z,8.20
2023-04-17T19:04:25.607Z,8.10
2023-04-17T19:06:52.489Z,8.20
2023-04-17T19:09:19.325Z,8.10
2023-04-17T19:11:46.221Z,8.20
2023-04-17T19:14:13.498Z,8.10
2023-04-17T19:16:40.728Z,8.10
2023-04-17T19:19:07.661Z,8.10
2023-04-17T19:21:34.545Z,8.10
2023-04-17T19:24:01.442Z,8.00
2023-04-17T19:26:28.325Z,8.00
2023-04-17T19:28:55.853Z,8.00
2023-04-17T19:31:22.757Z,8.00
2023-04-17T19:33:49.644Z,7.90
2023-04-17T19:36:16.506Z,7.90
2023-04-17T19:38:43.321Z,7.90
2023-04-17T19:41:10.903Z,7.90
2023-04-17T19:43:37.777Z,7.80
2023-04-17T19:46:04.721Z,7.80
2023-04-17T19:48:31.630Z,7.80
2023-04-17T19:50:58.507Z,7.80
2023-04-17T19:53:25.378Z,7.70
2023-04-17T19:55:52.275Z,7.70
2023-04-17T19:58:19.156Z,7.70
2023-04-17T20:00:46.113Z,7.60
2023-04-17T20:03:13.143Z,7.50
2023-04-17T20:05:40.090Z,7.50
2023-04-17T20:08:07.011Z,7.50
2023-04-17T20:10:33.881Z,7.40
2023-04-17T20:13:00.798Z,7.40
2023-04-17T20:15:27.920Z,7.40
2023-04-17T20:17:54.829Z,7.40
2023-04-17T20:20:24.892Z,7.30
2023-04-17T20:22:51.762Z,7.30
2023-04-17T20:25:18.906Z,7.30
2023-04-17T20:27:45.753Z,7.30
2023-04-17T20:30:13.201Z,7.30
2023-04-17T20:32:40.083Z,7.30
2023-04-17T20:35:10.247Z,7.20
2023-04-17T20:37:37.146Z,7.30
2023-04-17T20:40:04.335Z,7.30
2023-04-17T20:42:31.211Z,7.30
2023-04-17T20:44:58.071Z,7.30
2023-04-17T20:47:25.002Z,7.20
2023-04-17T20:49:51.864Z,7.20
2023-04-17T20:52:18.755Z,7.30
2023-04-17T20:54:45.628Z,7.20
2023-04-17T20:57:12.499Z,7.20
2023-04-17T20:59:39.365Z,7.20
2023-04-17T21:02:06.409Z,7.20
2023-04-17T21:04:33.518Z,7.20
2023-04-17T21:07:00.472Z,7.20
2023-04-17T21:09:27.303Z,7.20
2023-04-17T21:11:55.533Z,7.10
2023-04-17T21:14:22.387Z,7.20
2023-04-17T21:16:49.240Z,7.10
2023-04-17T21:19:16.105Z,7.00
2023-04-17T21:21:42.985Z,7.00
2023-04-17T21:24:09.880Z,7.00
2023-04-17T21:26:36.733Z,7.00
2023-04-17T21:29:03.591Z,7.00
2023-04-17T21:31:30.689Z,6.90
2023-04-17T21:33:57.596Z,6.90
2023-04-17T21:36:24.504Z,6.80
2023-04-17T21:38:51.309Z,6.80
2023-04-17T21:41:18.169Z,6.80
2023-04-17T21:43:45.036Z,6.80
2023-04-17T21:46:12.255Z,6.80
2023-04-17T21:48:39.936Z,6.70
2023-04-17T21:51:06.970Z,6.70
2023-04-17T21:53:35.852Z,6.70
2023-04-17T21:56:04.000Z,6.70
2023-04-17T21:58:32.568Z,6.70
2023-04-17T22:00:59.446Z,6.70
2023-04-17T22:03:26.526Z,6.70
2023-04-17T22:05:53.449Z,6.70
2023-04-17T22:08:20.354Z,6.70
2023-04-17T22:10:47.271Z,6.70
2023-04-17T22:13:14.162Z,6.60
2023-04-17T22:15:40.988Z,6.60
2023-04-17T22:18:07.922Z,6.60
2023-04-17T22:20:34.794Z,6.60
2023-04-17T22:23:01.708Z,6.50
2023-04-17T22:25:28.540Z,6.50
2023-04-17T22:27:55.438Z,6.50
2023-04-17T22:30:22.449Z,6.40
2023-04-17T22:32:49.308Z,6.40
2023-04-17T22:35:16.344Z,6.40
2023-04-17T22:37:43.194Z,6.40
2023-04-17T22:40:10.642Z,6.30
2023-04-17T22:42:37.546Z,6.30
2023-04-17T22:45:04.950Z,6.30
2023-04-17T22:47:31.847Z,6.30
2023-04-17T22:49:58.713Z,6.30
2023-04-17T22:52:25.639Z,6.30
2023-04-17T22:54:52.467Z,6.30
2023-04-17T22:57:19.331Z,6.20
2023-04-17T22:59:46.318Z,6.20
2023-04-17T23:02:13.294Z,6.30
2023-04-17T23:04:40.283Z,6.20
2023-04-17T23:07:07.174Z,6.10
2023-04-17T23:09:34.063Z,6.20
2023-04-17T23:12:01.007Z,6.10
2023-04-17T23:14:27.958Z,6.10
2023-04-17T23:16:54.812Z,6.10
2023-04-17T23:19:21.639Z,6.00
2023-04-17T23:21:48.527Z,6.00
2023-04-17T23:24:15.509Z,5.90
2023-04-17T23:26:42.430Z,5.90
2023-04-17T23:29:09.334Z,5.90
2023-04-17T23:31:39.047Z,5.80
2023-04-17T23:34:05.998Z,5.80
2023-04-17T23:36:32.856Z,5.80
2023-04-17T23:38:59.683Z,5.80
2023-04-17T23:41:26.508Z,5.80
2023-04-17T23:43:53.493Z,5.70
2023-04-17T23:46:20.375Z,5.70
2023-04-17T23:48:47.317Z,5.70
2023-04-17T23:51:14.213Z,5.70
2023-04-17T23:53:41.132Z,5.70
2023-04-17T23:56:08.084Z,5.70
2023-04-17T23:58:34.921Z,5.70
